Time;durP1;ratioP1;P1;durP2;ratioP2;P2;SDS_P1;SDS_P2;PMS_P1;PMS_P2;Temp;Humidity;BMP_temperature;BMP_pressure;BME280_temperature;BME280_humidity;BME280_pressure;Samples;Min_cycle;Max_cycle;Signal;HPM_P1;HPM_P2
2022/10/27 00:00:30;;;;;;;0.00;0.00;;;13.50;99.90;;;;;;5138847;27;20039;-70
2022/10/27 00:02:56;;;;;;;0.00;0.00;;;13.60;99.90;;;;;;5150392;27;20058;-70
2022/10/27 00:05:22;;;;;;;0.10;0.10;;;13.60;99.90;;;;;;5153200;27;20046;-70
2022/10/27 00:07:48;;;;;;;0.10;0.10;;;13.60;99.90;;;;;;5141821;27;20078;-70
2022/10/27 00:10:14;;;;;;;0.03;0.03;;;13.60;99.90;;;;;;5146065;27;20070;-69
2022/10/27 00:12:39;;;;;;;0.00;0.00;;;13.50;99.90;;;;;;5153227;27;20074;-69
2022/10/27 00:15:05;;;;;;;0.00;0.00;;;13.60;99.90;;;;;;5150732;27;20038;-70
2022/10/27 00:17:31;;;;;;;4.50;1.10;;;13.60;99.90;;;;;;5144392;27;20107;-70
2022/10/27 00:19:56;;;;;;;0.43;0.43;;;13.60;99.90;;;;;;5134862;27;20039;-70
2022/10/27 00:22:22;;;;;;;0.30;0.30;;;13.70;99.90;;;;;;5132680;27;20078;-70
2022/10/27 00:24:48;;;;;;;0.10;0.10;;;13.70;99.90;;;;;;5149105;27;20058;-70
2022/10/27 00:27:13;;;;;;;0.95;0.55;;;13.60;99.90;;;;;;5150202;27;20031;-70
2022/10/27 00:29:39;;;;;;;0.00;0.00;;;13.60;99.90;;;;;;5149941;27;20078;-70
2022/10/27 00:32:05;;;;;;;5.18;0.60;;;13.60;99.90;;;;;;5132565;27;20415;-70
2022/10/27 00:34:30;;;;;;;11.15;1.42;;;13.60;99.90;;;;;;5145769;27;20075;-70
2022/10/27 00:36:56;;;;;;;0.10;0.10;;;13.70;99.90;;;;;;5139882;27;20069;-70
2022/10/27 00:39:21;;;;;;;0.20;0.20;;;13.70;99.90;;;;;;5152554;27;20117;-70
2022/10/27 00:41:47;;;;;;;0.10;0.10;;;13.60;99.90;;;;;;5152285;27;20039;-70
2022/10/27 00:44:34;;;;;;;0.52;0.52;;;13.70;99.90;;;;;;5138641;27;20037;-70
2022/10/27 00:47:08;;;;;;;0.10;0.10;;;13.60;99.90;;;;;;5143648;27;20132;-70
2022/10/27 00:49:55;;;;;;;2.83;1.95;;;13.70;99.90;;;;;;5149152;27;20099;-70
2022/10/27 00:52:30;;;;;;;0.10;0.10;;;13.60;99.90;;;;;;5142828;27;20134;-70
2022/10/27 00:55:01;;;;;;;0.10;0.10;;;13.70;99.90;;;;;;5152822;27;20045;-70
2022/10/27 00:57:28;;;;;;;0.00;0.00;;;13.50;99.90;;;;;;5138497;27;20035;-70
2022/10/27 00:59:54;;;;;;;0.10;0.10;;;13.50;99.90;;;;;;5139604;27;20119;-70
2022/10/27 01:02:20;;;;;;;0.10;0.10;;;13.50;99.90;;;;;;5151824;27;20045;-70
2022/10/27 01:04:56;;;;;;;0.20;0.20;;;13.50;99.90;;;;;;5121590;27;20485;-70
2022/10/27 01:07:22;;;;;;;0.10;0.10;;;13.50;99.90;;;;;;5144783;27;20038;-70
2022/10/27 01:09:49;;;;;;;0.65;0.43;;;13.60;99.90;;;;;;5129010;27;20043;-70
2022/10/27 01:12:15;;;;;;;0.10;0.10;;;13.50;99.90;;;;;;5151053;27;20050;-70
2022/10/27 01:14:41;;;;;;;0.10;0.10;;;13.50;99.90;;;;;;5138699;27;20110;-70
2022/10/27 01:17:20;;;;;;;0.00;0.00;;;13.40;99.90;;;;;;5143902;27;20045;-70
2022/10/27 01:20:33;;;;;;;0.00;0.00;;;13.50;99.90;;;;;;5147749;27;20069;-70
2022/10/27 01:23:14;;;;;;;0.10;0.10;;;13.50;99.90;;;;;;5067934;27;20051;-70
2022/10/27 01:26:19;;;;;;;0.10;0.10;;;13.50;99.90;;;;;;5141658;27;20035;-70
2022/10/27 01:29:17;;;;;;;0.32;0.30;;;13.60;99.90;;;;;;5140085;27;20393;-70
2022/10/27 01:32:10;;;;;;;0.10;0.10;;;13.50;99.90;;;;;;5142313;27;20043;-70
2022/10/27 01:34:39;;;;;;;0.10;0.10;;;13.50;99.90;;;;;;5134608;27;20054;-70
2022/10/27 01:37:14;;;;;;;0.35;0.35;;;13.60;99.90;;;;;;5133128;27;20152;-70
2022/10/27 01:40:02;;;;;;;0.55;0.55;;;13.60;99.90;;;;;;5150712;27;20022;-70
2022/10/27 01:42:36;;;;;;;0.10;0.10;;;13.50;99.90;;;;;;5145881;27;20039;-70
2022/10/27 01:45:04;;;;;;;0.25;0.25;;;13.60;99.90;;;;;;5127979;27;20071;-70
2022/10/27 01:47:30;;;;;;;0.20;0.20;;;13.60;99.90;;;;;;5150316;27;20050;-70
2022/10/27 01:49:56;;;;;;;0.10;0.10;;;13.60;99.90;;;;;;5150967;27;20051;-70
2022/10/27 01:52:42;;;;;;;0.10;0.10;;;13.60;99.90;;;;;;5140514;27;20046;-70
2022/10/27 01:55:40;;;;;;;0.00;0.00;;;13.60;99.90;;;;;;5124988;27;20130;-70
2022/10/27 01:59:02;;;;;;;0.10;0.10;;;13.50;99.90;;;;;;5140302;27;20465;-70
2022/10/27 02:01:43;;;;;;;0.10;0.10;;;13.50;99.90;;;;;;5065739;28;20044;-70
2022/10/27 02:04:34;;;;;;;0.10;0.10;;;13.50;99.90;;;;;;5053053;28;20067;-70
2022/10/27 02:07:21;;;;;;;0.00;0.00;;;13.60;99.90;;;;;;5127896;27;20402;-70
2022/10/27 02:09:59;;;;;;;0.10;0.10;;;13.60;99.90;;;;;;5135994;27;20471;-70
2022/10/27 02:12:32;;;;;;;0.10;0.10;;;13.60;99.90;;;;;;5149679;27;20054;-70
2022/10/27 02:15:01;;;;;;;0.10;0.10;;;13.70;99.90;;;;;;5132221;27;20397;-70
2022/10/27 02:17:37;;;;;;;0.10;0.10;;;13.70;99.90;;;;;;5145430;27;20099;-70
2022/10/27 02:20:07;;;;;;;0.10;0.10;;;13.70;99.90;;;;;;5150517;27;20043;-70
2022/10/27 02:22:35;;;;;;;0.10;0.10;;;13.70;99.90;;;;;;5149060;27;20086;-70
2022/10/27 02:25:01;;;;;;;0.30;0.30;;;13.70;99.90;;;;;;5146447;27;20543;-70
2022/10/27 02:27:39;;;;;;;0.32;0.32;;;13.70;99.90;;;;;;5144967;27;20450;-70
2022/10/27 02:30:05;;;;;;;0.10;0.10;;;13.80;99.90;;;;;;5150013;27;20070;-70
2022/10/27 02:32:32;;;;;;;0.10;0.10;;;13.70;99.90;;;;;;5147681;27;20424;-70
2022/10/27 02:34:59;;;;;;;0.05;0.05;;;13.70;99.90;;;;;;5132673;27;20071;-70
2022/10/27 02:37:32;;;;;;;0.47;0.47;;;13.80;99.90;;;;;;5150382;27;20080;-70
2022/10/27 02:39:57;;;;;;;0.20;0.20;;;13.80;99.90;;;;;;5149565;27;20055;-70
2022/10/27 02:42:23;;;;;;;0.25;0.25;;;13.80;99.90;;;;;;5150068;27;20499;-70
2022/10/27 02:44:48;;;;;;;1.60;0.52;;;13.80;99.90;;;;;;5149208;27;20137;-70
2022/10/27 02:47:14;;;;;;;0.30;0.30;;;13.80;99.90;;;;;;5137626;27;20486;-70
2022/10/27 02:49:39;;;;;;;0.10;0.10;;;13.80;99.90;;;;;;5143030;27;20509;-70
2022/10/27 02:52:05;;;;;;;0.30;0.30;;;13.80;99.90;;;;;;5143393;27;20039;-70
2022/10/27 02:54:31;;;;;;;0.00;0.00;;;13.90;99.90;;;;;;5150977;27;20046;-70
2022/10/27 02:56:57;;;;;;;0.20;0.20;;;13.90;99.90;;;;;;5149413;27;20099;-70
2022/10/27 02:59:23;;;;;;;0.08;0.08;;;13.90;99.90;;;;;;5135507;27;20506;-70
2022/10/27 03:01:48;;;;;;;0.28;0.28;;;13.90;99.90;;;;;;5139426;27;20051;-70
2022/10/27 03:04:14;;;;;;;0.10;0.10;;;13.90;99.90;;;;;;5146780;27;20070;-70
2022/10/27 03:06:39;;;;;;;0.10;0.10;;;13.90;99.90;;;;;;5148990;27;20405;-70
2022/10/27 03:09:05;;;;;;;0.10;0.10;;;14.00;99.90;;;;;;5137582;27;20075;-70
2022/10/27 03:11:30;;;;;;;0.10;0.10;;;14.00;99.90;;;;;;5137174;27;20050;-70
2022/10/27 03:13:56;;;;;;;0.15;0.15;;;13.90;99.90;;;;;;5139035;27;20050;-70
2022/10/27 03:16:22;;;;;;;0.45;0.40;;;14.00;99.90;;;;;;5138003;27;20383;-71
2022/10/27 03:18:47;;;;;;;0.10;0.10;;;14.00;99.90;;;;;;5144863;27;20184;-71
2022/10/27 03:21:13;;;;;;;0.00;0.00;;;14.00;99.90;;;;;;5129963;27;20042;-71
2022/10/27 03:23:39;;;;;;;0.10;0.10;;;14.00;99.90;;;;;;5141876;27;20043;-71
2022/10/27 03:26:05;;;;;;;0.10;0.10;;;14.10;99.90;;;;;;5151571;27;20902;-71
2022/10/27 03:28:34;;;;;;;0.08;0.08;;;14.10;99.90;;;;;;5135995;27;20047;-70
2022/10/27 03:31:00;;;;;;;0.10;0.10;;;14.10;99.90;;;;;;5143386;27;20088;-71
2022/10/27 03:33:26;;;;;;;0.30;0.30;;;14.10;99.90;;;;;;5140008;27;20572;-70
2022/10/27 03:35:52;;;;;;;0.08;0.08;;;14.10;99.90;;;;;;5154444;27;20110;-71
2022/10/27 03:38:17;;;;;;;0.08;0.08;;;14.10;99.90;;;;;;5152296;27;20041;-70
2022/10/27 03:40:43;;;;;;;0.03;0.03;;;14.10;99.90;;;;;;5141403;27;20126;-71
2022/10/27 03:43:09;;;;;;;0.10;0.10;;;14.10;99.90;;;;;;5147905;27;20047;-71
2022/10/27 03:45:35;;;;;;;0.20;0.20;;;14.10;99.90;;;;;;5151406;27;20031;-70
2022/10/27 03:48:11;;;;;;;0.20;0.20;;;14.10;99.90;;;;;;5142788;27;20047;-70
2022/10/27 03:50:37;;;;;;;0.15;0.15;;;14.10;99.90;;;;;;5149517;27;20557;-70
2022/10/27 03:53:03;;;;;;;0.35;0.35;;;14.10;99.90;;;;;;5137318;27;20053;-70
2022/10/27 03:55:30;;;;;;;0.25;0.25;;;14.10;99.90;;;;;;5152704;27;20088;-70
2022/10/27 03:57:56;;;;;;;0.10;0.10;;;14.10;99.90;;;;;;5144722;27;20047;-70
2022/10/27 04:00:22;;;;;;;0.10;0.10;;;14.10;99.90;;;;;;5151527;27;20039;-70
2022/10/27 04:02:48;;;;;;;0.45;0.45;;;14.00;99.90;;;;;;5152761;27;20043;-70
2022/10/27 04:05:14;;;;;;;5.13;1.45;;;14.00;99.90;;;;;;5133230;27;20043;-71
2022/10/27 04:07:39;;;;;;;0.22;0.22;;;14.00;99.90;;;;;;5150771;27;20136;-71
2022/10/27 04:10:05;;;;;;;0.03;0.03;;;14.00;99.90;;;;;;5152045;27;20138;-71
2022/10/27 04:12:31;;;;;;;0.00;0.00;;;14.00;99.90;;;;;;5135342;27;20124;-71
2022/10/27 04:14:56;;;;;;;0.10;0.10;;;13.90;99.90;;;;;;5145855;27;20035;-71
2022/10/27 04:17:22;;;;;;;0.10;0.10;;;14.00;99.90;;;;;;5150704;27;20050;-71
2022/10/27 04:19:48;;;;;;;33.10;1.17;;;13.90;99.90;;;;;;5141408;27;20042;-71
2022/10/27 04:22:13;;;;;;;0.32;0.32;;;13.90;99.90;;;;;;5143163;27;20088;-71
2022/10/27 04:24:39;;;;;;;0.55;0.35;;;13.90;99.90;;;;;;5149607;27;20099;-71
2022/10/27 04:27:05;;;;;;;0.20;0.20;;;13.90;99.90;;;;;;5143777;27;20047;-71
2022/10/27 04:29:31;;;;;;;0.20;0.20;;;13.90;99.90;;;;;;5137145;27;20039;-71
2022/10/27 04:31:56;;;;;;;1.25;1.15;;;13.90;99.90;;;;;;5151564;27;20042;-70
2022/10/27 04:34:22;;;;;;;0.15;0.15;;;13.90;99.90;;;;;;5147888;27;20118;-70
2022/10/27 04:36:48;;;;;;;0.10;0.10;;;13.90;99.90;;;;;;5140578;27;20055;-70
2022/10/27 04:39:14;;;;;;;0.10;0.10;;;13.90;99.90;;;;;;5132432;27;20031;-70
2022/10/27 04:41:40;;;;;;;0.10;0.10;;;14.00;99.90;;;;;;5142577;27;20043;-70
2022/10/27 04:44:06;;;;;;;0.35;0.35;;;13.90;99.90;;;;;;5132209;27;20046;-71
2022/10/27 04:46:31;;;;;;;0.10;0.10;;;14.00;99.90;;;;;;5140615;27;20050;-70
2022/10/27 04:48:57;;;;;;;0.10;0.10;;;13.90;99.90;;;;;;5142960;27;20046;-70
2022/10/27 04:51:23;;;;;;;0.10;0.10;;;13.90;99.90;;;;;;5147720;27;20047;-70
2022/10/27 04:53:49;;;;;;;0.10;0.10;;;14.00;99.90;;;;;;5152497;27;20042;-70
2022/10/27 04:56:15;;;;;;;0.10;0.10;;;13.90;99.90;;;;;;5144386;27;20067;-71
2022/10/27 04:58:40;;;;;;;0.20;0.20;;;13.90;99.90;;;;;;5126161;27;20088;-71
2022/10/27 05:01:07;;;;;;;0.30;0.30;;;13.90;99.90;;;;;;5146729;27;20049;-70
2022/10/27 05:03:33;;;;;;;0.00;0.00;;;13.90;99.90;;;;;;5133741;27;20109;-70
2022/10/27 05:05:59;;;;;;;0.20;0.20;;;14.00;99.90;;;;;;5153031;27;20082;-70
2022/10/27 05:08:25;;;;;;;0.22;0.22;;;14.00;99.90;;;;;;5139104;27;20076;-70
2022/10/27 05:10:50;;;;;;;0.05;0.05;;;14.00;99.90;;;;;;5139147;27;20035;-71
2022/10/27 05:13:16;;;;;;;11.85;0.93;;;14.00;99.90;;;;;;5149256;27;20047;-70
2022/10/27 05:15:41;;;;;;;0.08;0.08;;;14.00;99.90;;;;;;5152217;27;20042;-71
2022/10/27 05:18:07;;;;;;;0.38;0.25;;;14.00;99.90;;;;;;5149226;27;20062;-71
2022/10/27 05:20:32;;;;;;;0.10;0.10;;;14.00;99.90;;;;;;5139927;27;20466;-71
2022/10/27 05:22:58;;;;;;;0.03;0.03;;;14.00;99.90;;;;;;5144791;27;20371;-71
2022/10/27 05:25:23;;;;;;;0.85;0.85;;;14.00;99.90;;;;;;5148765;27;20038;-71
2022/10/27 05:27:49;;;;;;;0.10;0.10;;;14.00;99.90;;;;;;5139295;27;20545;-71
2022/10/27 05:30:15;;;;;;;0.15;0.15;;;14.00;99.90;;;;;;5142491;27;20103;-71
2022/10/27 05:32:41;;;;;;;0.10;0.10;;;14.10;99.90;;;;;;5150757;27;20301;-71
2022/10/27 05:35:07;;;;;;;0.08;0.08;;;14.10;99.90;;;;;;5132811;27;20039;-71
2022/10/27 05:37:32;;;;;;;0.10;0.10;;;14.10;99.90;;;;;;5147523;27;20043;-71
2022/10/27 05:39:59;;;;;;;0.22;0.22;;;14.10;99.90;;;;;;5137390;27;20042;-71
2022/10/27 05:42:25;;;;;;;0.10;0.10;;;14.10;99.90;;;;;;5149627;27;20099;-71
2022/10/27 05:44:51;;;;;;;0.00;0.00;;;14.10;99.90;;;;;;5146676;27;20031;-70
2022/10/27 05:47:16;;;;;;;0.40;0.20;;;14.10;99.90;;;;;;5139568;27;20401;-71
2022/10/27 05:49:42;;;;;;;1.17;0.25;;;14.10;99.90;;;;;;5130167;27;20054;-71
2022/10/27 05:52:08;;;;;;;6.55;0.90;;;14.10;99.90;;;;;;5142269;27;20482;-71
2022/10/27 05:54:33;;;;;;;0.00;0.00;;;14.10;99.90;;;;;;5134852;27;20043;-71
2022/10/27 05:56:59;;;;;;;0.03;0.03;;;14.10;99.90;;;;;;5131531;27;20425;-71
2022/10/27 05:59:24;;;;;;;0.38;0.38;;;14.20;99.90;;;;;;5148235;27;20046;-71
2022/10/27 06:01:50;;;;;;;0.10;0.10;;;14.20;99.90;;;;;;5145540;27;20030;-71
2022/10/27 06:04:15;;;;;;;0.10;0.10;;;14.20;99.90;;;;;;5131161;27;20463;-71
2022/10/27 06:06:41;;;;;;;0.15;0.15;;;14.20;99.90;;;;;;5131118;27;20056;-71
2022/10/27 06:09:06;;;;;;;0.10;0.10;;;14.30;99.90;;;;;;5115162;27;20053;-71
2022/10/27 06:11:32;;;;;;;1.08;0.85;;;14.30;99.90;;;;;;5136068;27;20072;-71
2022/10/27 06:13:57;;;;;;;0.10;0.10;;;14.30;99.90;;;;;;5141104;27;20034;-71
2022/10/27 06:16:27;;;;;;;0.00;0.00;;;14.30;99.90;;;;;;5145044;27;20167;-72
2022/10/27 06:18:53;;;;;;;0.32;0.32;;;14.30;99.90;;;;;;5123091;27;20059;-72
2022/10/27 06:21:19;;;;;;;0.38;0.38;;;14.30;99.90;;;;;;5144848;27;20039;-72
2022/10/27 06:23:49;;;;;;;1.77;0.63;;;14.30;99.90;;;;;;5129345;27;20047;-72
2022/10/27 06:26:15;;;;;;;0.10;0.10;;;14.30;99.90;;;;;;5146675;27;20043;-71
2022/10/27 06:28:40;;;;;;;0.40;0.40;;;14.30;99.90;;;;;;5135015;27;20077;-72
2022/10/27 06:31:06;;;;;;;0.05;0.05;;;14.30;99.90;;;;;;5137530;27;20096;-72
2022/10/27 06:33:32;;;;;;;0.35;0.25;;;14.30;99.90;;;;;;5124543;27;20043;-71
2022/10/27 06:35:57;;;;;;;0.10;0.10;;;14.30;99.90;;;;;;5140405;27;20615;-71
2022/10/27 06:38:23;;;;;;;0.00;0.00;;;14.30;99.90;;;;;;5130363;27;20051;-71
2022/10/27 06:40:48;;;;;;;0.30;0.30;;;14.30;99.90;;;;;;5148522;27;20035;-71
2022/10/27 06:43:14;;;;;;;0.00;0.00;;;14.30;99.90;;;;;;5141955;27;20587;-71
2022/10/27 06:45:44;;;;;;;0.47;0.47;;;14.30;99.90;;;;;;5138236;27;20397;-71
2022/10/27 06:48:09;;;;;;;0.15;0.15;;;14.30;99.90;;;;;;5137885;27;20385;-71
2022/10/27 06:50:35;;;;;;;0.10;0.10;;;14.30;99.90;;;;;;5146003;27;20117;-71
2022/10/27 06:53:01;;;;;;;0.08;0.08;;;14.30;99.90;;;;;;5149733;27;20046;-71
2022/10/27 06:55:28;;;;;;;0.20;0.17;;;14.30;99.90;;;;;;5151566;27;20026;-71
2022/10/27 06:57:53;;;;;;;0.20;0.20;;;14.30;99.90;;;;;;5136187;27;20039;-71
2022/10/27 07:00:19;;;;;;;0.75;0.75;;;14.30;99.90;;;;;;5144846;27;20043;-71
2022/10/27 07:02:45;;;;;;;0.10;0.10;;;14.30;99.90;;;;;;5154035;27;20038;-71
2022/10/27 07:05:11;;;;;;;0.75;0.75;;;14.30;99.90;;;;;;5144706;27;20153;-71
2022/10/27 07:07:37;;;;;;;0.10;0.10;;;14.30;99.90;;;;;;5133677;27;20551;-71
2022/10/27 07:10:05;;;;;;;0.10;0.10;;;14.20;99.90;;;;;;5134665;27;20043;-71
2022/10/27 07:12:30;;;;;;;0.20;0.20;;;14.20;99.90;;;;;;5132869;27;20051;-71
2022/10/27 07:14:56;;;;;;;0.20;0.20;;;14.20;99.90;;;;;;5132940;27;20043;-71
2022/10/27 07:17:21;;;;;;;0.10;0.10;;;14.20;99.90;;;;;;5133670;27;20039;-71
2022/10/27 07:19:47;;;;;;;0.20;0.15;;;14.20;99.90;;;;;;5136988;27;20095;-71
2022/10/27 07:22:12;;;;;;;0.35;0.35;;;14.30;99.90;;;;;;5152922;27;20046;-71
2022/10/27 07:24:38;;;;;;;0.10;0.10;;;14.30;99.90;;;;;;5146517;27;20042;-71
2022/10/27 07:27:04;;;;;;;0.00;0.00;;;14.30;99.90;;;;;;5142064;27;20047;-72
2022/10/27 07:29:29;;;;;;;0.10;0.10;;;14.30;99.90;;;;;;5131923;27;20041;-71
2022/10/27 07:31:55;;;;;;;0.00;0.00;;;14.30;99.90;;;;;;5149802;27;20050;-71
2022/10/27 07:34:20;;;;;;;0.55;0.55;;;14.30;99.90;;;;;;5141178;27;20071;-71
2022/10/27 07:36:46;;;;;;;0.30;0.30;;;14.30;99.90;;;;;;5131950;27;20066;-71
2022/10/27 07:39:11;;;;;;;0.32;0.32;;;14.30;99.90;;;;;;5144032;27;20047;-71
2022/10/27 07:41:37;;;;;;;0.25;0.25;;;14.40;99.90;;;;;;5127918;27;20046;-71
2022/10/27 07:44:03;;;;;;;0.10;0.10;;;14.40;99.90;;;;;;5145568;27;20050;-71
2022/10/27 07:46:29;;;;;;;0.20;0.20;;;14.40;99.90;;;;;;5137223;27;20458;-71
2022/10/27 07:48:54;;;;;;;0.10;0.10;;;14.50;99.90;;;;;;5148213;27;20074;-71
2022/10/27 07:51:20;;;;;;;0.15;0.15;;;14.50;99.90;;;;;;5132963;27;20048;-71
2022/10/27 07:53:45;;;;;;;0.17;0.17;;;14.50;99.90;;;;;;5151740;27;20086;-71
2022/10/27 07:56:11;;;;;;;0.20;0.20;;;14.50;99.90;;;;;;5152232;27;20076;-71
2022/10/27 07:58:37;;;;;;;0.20;0.20;;;14.60;99.90;;;;;;5150206;27;20051;-71
2022/10/27 08:01:04;;;;;;;1.05;0.60;;;14.60;99.90;;;;;;5151814;27;20035;-71
2022/10/27 08:03:30;;;;;;;0.77;0.55;;;14.60;99.90;;;;;;5139917;27;20582;-71
2022/10/27 08:06:04;;;;;;;0.10;0.10;;;14.60;99.90;;;;;;5130720;27;20141;-71
2022/10/27 08:08:31;;;;;;;1.10;0.50;;;14.60;99.90;;;;;;5148998;27;20137;-71
2022/10/27 08:10:57;;;;;;;0.35;0.35;;;14.60;99.90;;;;;;5137608;27;20154;-71
2022/10/27 08:13:23;;;;;;;0.08;0.08;;;14.60;99.90;;;;;;5131952;27;20047;-72
2022/10/27 08:15:49;;;;;;;0.20;0.20;;;14.60;99.90;;;;;;5133417;27;20086;-71
2022/10/27 08:18:15;;;;;;;0.17;0.17;;;14.60;99.90;;;;;;5133266;27;20082;-71
2022/10/27 08:20:45;;;;;;;0.00;0.00;;;14.60;99.90;;;;;;5133102;27;20588;-71
2022/10/27 08:23:14;;;;;;;0.10;0.10;;;14.70;99.90;;;;;;5138232;27;20046;-72
2022/10/27 08:25:40;;;;;;;0.30;0.22;;;14.80;99.90;;;;;;5141378;27;20092;-72
2022/10/27 08:28:06;;;;;;;0.30;0.30;;;14.80;99.90;;;;;;5126789;27;20051;-71
2022/10/27 08:30:33;;;;;;;0.30;0.30;;;14.90;99.90;;;;;;5123974;27;20129;-71
2022/10/27 08:33:00;;;;;;;0.13;0.13;;;14.90;99.90;;;;;;5151445;27;20085;-71
2022/10/27 08:35:27;;;;;;;0.00;0.00;;;14.90;99.90;;;;;;5129059;27;20054;-70
2022/10/27 08:38:06;;;;;;;0.10;0.10;;;15.00;99.90;;;;;;5147035;27;20390;-71
2022/10/27 08:40:58;;;;;;;0.05;0.05;;;15.10;99.90;;;;;;5143239;27;20053;-71
2022/10/27 08:43:42;;;;;;;0.65;0.65;;;15.20;99.90;;;;;;5142980;27;20027;-71
2022/10/27 08:46:31;;;;;;;0.10;0.10;;;15.30;99.90;;;;;;5145250;27;20049;-71
2022/10/27 08:49:05;;;;;;;0.10;0.10;;;15.40;99.90;;;;;;5132430;27;20039;-70
2022/10/27 08:51:33;;;;;;;0.43;0.43;;;15.50;99.90;;;;;;5133700;27;20060;-71
2022/10/27 08:53:59;;;;;;;0.28;0.28;;;15.50;99.90;;;;;;5136378;27;20521;-71
2022/10/27 08:56:33;;;;;;;0.32;0.20;;;15.60;99.90;;;;;;5147488;27;20483;-71
2022/10/27 08:58:58;;;;;;;0.05;0.05;;;15.70;99.90;;;;;;5133322;27;20051;-70
2022/10/27 09:01:31;;;;;;;0.00;0.00;;;15.70;99.90;;;;;;5133762;27;20808;-71
2022/10/27 10:19:23;;;;;;;0.20;0.20;;;16.60;99.90;;;;;;5115432;27;20133;-70
2022/10/27 10:21:54;;;;;;;0.10;0.10;;;16.70;99.90;;;;;;5099926;28;20080;-70
2022/10/27 10:24:24;;;;;;;1.13;0.65;;;16.70;99.90;;;;;;5106176;28;20039;-70
2022/10/27 10:26:59;;;;;;;0.10;0.10;;;16.70;99.90;;;;;;5090368;28;20039;-70
2022/10/27 10:29:47;;;;;;;0.40;0.40;;;16.70;99.90;;;;;;5083632;28;20051;-70
2022/10/27 10:32:27;;;;;;;0.55;0.40;;;16.80;99.90;;;;;;5088475;28;20158;-70
2022/10/27 10:34:53;;;;;;;0.32;0.32;;;16.90;99.90;;;;;;5104686;28;20047;-70
2022/10/27 10:37:44;;;;;;;0.10;0.10;;;16.90;99.90;;;;;;5094479;28;20493;-71
2022/10/27 10:40:12;;;;;;;0.75;0.75;;;16.90;99.90;;;;;;5093963;28;20036;-68
2022/10/27 10:42:38;;;;;;;0.38;0.38;;;17.00;99.90;;;;;;5092794;28;20048;-71
2022/10/27 10:45:18;;;;;;;0.63;0.52;;;17.10;99.90;;;;;;5094963;28;20050;-72
2022/10/27 10:47:51;;;;;;;0.10;0.10;;;17.20;99.90;;;;;;5099851;28;20394;-71
2022/10/27 10:50:17;;;;;;;;;;;17.30;99.90;;;;;;5091781;28;20090;-72
2022/10/27 10:52:49;;;;;;;0.20;0.20;;;17.40;99.90;;;;;;5093466;28;19968;-71
2022/10/27 10:55:32;;;;;;;0.40;0.40;;;17.50;99.90;;;;;;5085329;28;20052;-71
2022/10/27 10:57:58;;;;;;;0.10;0.10;;;17.60;99.90;;;;;;5089977;28;20123;-71
2022/10/27 11:00:25;;;;;;;0.10;0.10;;;17.60;99.90;;;;;;5088938;28;20151;-72
2022/10/27 11:03:03;;;;;;;1.02;0.73;;;17.70;99.90;;;;;;5086869;28;20522;-72
2022/10/27 11:05:34;;;;;;;0.47;0.45;;;17.70;99.90;;;;;;5086813;28;20098;-71
2022/10/27 11:08:00;;;;;;;0.10;0.10;;;17.80;99.90;;;;;;5085396;28;20050;-71
2022/10/27 11:10:37;;;;;;;0.10;0.10;;;17.80;99.90;;;;;;5084927;28;20061;-71
2022/10/27 11:13:16;;;;;;;0.30;0.30;;;17.80;99.90;;;;;;5095948;28;20793;-71
2022/10/27 11:15:59;;;;;;;0.10;0.10;;;17.80;99.90;;;;;;5102995;28;20047;-71
2022/10/27 11:18:29;;;;;;;0.10;0.10;;;17.90;99.90;;;;;;5086485;28;20060;-71
2022/10/27 11:21:16;;;;;;;5.47;1.17;;;18.10;99.90;;;;;;5086128;28;20051;-72
2022/10/27 11:23:55;;;;;;;0.30;0.30;;;18.30;99.90;;;;;;5086858;28;20102;-72
2022/10/27 11:26:34;;;;;;;0.10;0.10;;;18.60;99.90;;;;;;5083894;28;20150;-72
2022/10/27 11:29:13;;;;;;;0.10;0.10;;;19.00;99.90;;;;;;5078989;28;20049;-72
2022/10/27 11:31:53;;;;;;;0.60;0.50;;;19.50;99.90;;;;;;5084405;28;20086;-72
2022/10/27 11:34:53;;;;;;;3.10;0.80;;;19.70;99.90;;;;;;5092568;28;20510;-71
2022/10/27 11:37:27;;;;;;;0.10;0.10;;;19.80;99.90;;;;;;5069439;28;20086;-71
2022/10/27 11:40:01;;;;;;;0.10;0.10;;;19.90;99.90;;;;;;5073449;28;20094;-72
2022/10/27 11:42:33;;;;;;;9.63;0.57;;;19.80;99.90;;;;;;5074127;28;20050;-72
2022/10/27 11:45:20;;;;;;;0.00;0.00;;;19.70;99.90;;;;;;5091396;28;20044;-72
2022/10/27 11:48:03;;;;;;;0.10;0.10;;;19.70;99.90;;;;;;5073734;28;20478;-71
2022/10/27 11:50:38;;;;;;;0.00;0.00;;;19.80;99.90;;;;;;5079832;28;20043;-71
2022/10/27 11:53:04;;;;;;;0.20;0.20;;;20.10;99.90;;;;;;5092324;28;20039;-71
2022/10/27 11:55:58;;;;;;;0.00;0.00;;;20.30;99.90;;;;;;5084710;28;20033;-71
2022/10/27 11:58:30;;;;;;;;;;;20.40;99.90;;;;;;5072143;28;20048;-72
2022/10/27 12:01:01;;;;;;;0.00;0.00;;;20.60;99.90;;;;;;5072422;28;19921;-72
2022/10/27 12:03:41;;;;;;;2.85;0.40;;;20.70;99.90;;;;;;5062444;28;20517;-71
2022/10/27 12:06:26;;;;;;;0.00;0.00;;;20.60;99.90;;;;;;5093103;28;20062;-72
2022/10/27 12:09:09;;;;;;;0.22;0.15;;;20.40;99.90;;;;;;5072180;28;20048;-72
2022/10/27 12:11:55;;;;;;;0.00;0.00;;;20.20;99.90;;;;;;5091466;28;20113;-72
2022/10/27 12:14:41;;;;;;;1.30;1.20;;;20.10;99.90;;;;;;5091819;28;20501;-72
2022/10/27 12:17:19;;;;;;;0.10;0.10;;;19.90;99.90;;;;;;5091761;28;20048;-72
2022/10/27 12:19:47;;;;;;;0.20;0.20;;;19.70;99.90;;;;;;5090840;28;20040;-72
2022/10/27 12:22:44;;;;;;;0.00;0.00;;;19.60;99.90;;;;;;5080381;28;20040;-72
2022/10/27 12:25:13;;;;;;;0.30;0.30;;;19.50;99.90;;;;;;5035940;28;20505;-72
2022/10/27 12:27:43;;;;;;;0.30;0.30;;;19.40;99.90;;;;;;5071535;28;20387;-72
2022/10/27 12:30:18;;;;;;;0.03;0.03;;;19.30;99.90;;;;;;5072027;28;20399;-73
2022/10/27 12:33:08;;;;;;;0.20;0.20;;;19.30;99.90;;;;;;5071463;28;20083;-72
2022/10/27 12:35:58;;;;;;;0.03;0.03;;;19.20;99.90;;;;;;5081894;28;20444;-72
2022/10/27 12:38:50;;;;;;;0.03;0.03;;;19.20;99.90;;;;;;5091082;28;20454;-71
2022/10/27 12:41:28;;;;;;;0.22;0.22;;;19.10;99.90;;;;;;5077536;28;20052;-71
2022/10/27 12:44:37;;;;;;;0.10;0.10;;;19.10;99.90;;;;;;5095117;28;20755;-70
2022/10/27 12:47:23;;;;;;;0.00;0.00;;;19.00;99.90;;;;;;5045091;28;20565;-70
2022/10/27 12:50:11;;;;;;;0.00;0.00;;;19.10;99.90;;;;;;5081787;28;20050;-71
2022/10/27 12:53:03;;;;;;;1.25;0.70;;;19.00;99.90;;;;;;5090999;28;20101;-71
2022/10/27 12:55:46;;;;;;;0.10;0.10;;;19.00;99.90;;;;;;5079719;28;20055;-71
2022/10/27 12:58:32;;;;;;;0.75;0.35;;;19.00;99.90;;;;;;5071578;28;20075;-72
2022/10/27 13:01:40;;;;;;;0.17;0.17;;;18.90;99.90;;;;;;5068095;28;20504;-71
2022/10/27 13:04:39;;;;;;;19.17;0.80;;;18.90;99.90;;;;;;5070697;28;20539;-72
2022/10/27 13:07:20;;;;;;;0.52;0.15;;;18.90;99.90;;;;;;5084645;28;20442;-71
2022/10/27 13:09:58;;;;;;;0.20;0.20;;;18.80;99.90;;;;;;5074599;28;20549;-71
2022/10/27 13:12:42;;;;;;;0.20;0.20;;;18.90;99.90;;;;;;5070761;28;20048;-71
2022/10/27 13:15:34;;;;;;;0.05;0.05;;;18.90;99.90;;;;;;5074934;28;20059;-71
2022/10/27 13:18:26;;;;;;;1.10;0.47;;;18.90;99.90;;;;;;5059745;28;20168;-71
2022/10/27 13:21:00;;;;;;;0.00;0.00;;;18.80;99.90;;;;;;5069966;28;20396;-71
2022/10/27 13:23:34;;;;;;;0.10;0.10;;;18.80;99.90;;;;;;5070672;28;20143;-72
2022/10/27 13:26:33;;;;;;;0.00;0.00;;;18.80;99.90;;;;;;5052769;28;20045;-72
2022/10/27 13:29:24;;;;;;;0.00;0.00;;;18.70;99.90;;;;;;5081599;28;20041;-72
2022/10/27 13:32:14;;;;;;;0.10;0.10;;;18.60;99.90;;;;;;5070086;28;20051;-72
2022/10/27 13:34:40;;;;;;;0.25;0.25;;;18.50;99.90;;;;;;5077766;28;20044;-72
2022/10/27 13:37:43;;;;;;;0.00;0.00;;;18.50;99.90;;;;;;5052823;28;20110;-72
2022/10/27 13:40:18;;;;;;;0.10;0.10;;;18.40;99.90;;;;;;5069488;28;20044;-72
2022/10/27 13:42:51;;;;;;;0.00;0.00;;;18.30;99.90;;;;;;5072776;28;20052;-74
2022/10/27 13:45:25;;;;;;;;;;;18.20;99.90;;;;;;5070654;28;20048;-71
2022/10/27 13:48:06;;;;;;;0.00;0.00;;;18.10;99.90;;;;;;5069426;28;20358;-71
2022/10/27 13:50:37;;;;;;;0.45;0.40;;;18.00;99.90;;;;;;5037835;28;20087;-71
2022/10/27 13:53:14;;;;;;;0.05;0.05;;;18.00;99.90;;;;;;5054654;28;20032;-70
2022/10/27 13:55:51;;;;;;;1.17;1.05;;;17.90;99.90;;;;;;5063659;28;20041;-71
2022/10/27 13:58:25;;;;;;;0.20;0.20;;;17.80;99.90;;;;;;5048698;28;20048;-71
2022/10/27 14:01:05;;;;;;;0.00;0.00;;;17.80;99.90;;;;;;5068114;28;20124;-70
2022/10/27 14:03:37;;;;;;;0.00;0.00;;;17.80;99.90;;;;;;5043430;28;20053;-71
2022/10/27 14:06:08;;;;;;;0.00;0.00;;;17.80;99.90;;;;;;5036156;28;20044;-70
2022/10/27 14:08:43;;;;;;;0.00;0.00;;;17.70;99.90;;;;;;5069684;28;20256;-71
2022/10/27 14:11:12;;;;;;;0.20;0.17;;;17.80;99.90;;;;;;5053228;28;20194;-71
2022/10/27 14:13:48;;;;;;;0.98;0.90;;;17.70;99.90;;;;;;5055200;28;20079;-70
2022/10/27 14:16:29;;;;;;;0.60;0.30;;;17.80;99.90;;;;;;5066101;28;20102;-70
2022/10/27 14:19:11;;;;;;;0.00;0.00;;;17.70;99.90;;;;;;5061962;28;20186;-72
2022/10/27 14:21:51;;;;;;;0.10;0.10;;;17.80;99.90;;;;;;5049652;28;20045;-71
2022/10/27 14:24:20;;;;;;;0.38;0.20;;;17.80;99.90;;;;;;5051599;28;20041;-71
2022/10/27 14:26:45;;;;;;;0.15;0.15;;;17.80;99.90;;;;;;5049536;28;20453;-71